createdAt,value
2017-07-11T00:00:46.031Z,18
2017-07-11T00:01:45.740Z,18
2017-07-11T00:02:44.817Z,18
2017-07-11T00:03:44.407Z,17.8
2017-07-11T00:04:43.997Z,17.8
2017-07-11T00:05:42.841Z,17.9
2017-07-11T00:06:42.043Z,17.9
2017-07-11T00:07:41.489Z,17.9
2017-07-11T00:08:41.080Z,17.8
2017-07-11T00:09:39.785Z,17.9
2017-07-11T00:10:39.352Z,17.8
2017-07-11T00:11:38.796Z,17.9
2017-07-11T00:12:38.249Z,17.9
2017-07-11T00:13:37.572Z,18
2017-07-11T00:14:36.765Z,17.9
2017-07-11T00:15:36.083Z,17.9
2017-07-11T00:16:35.290Z,18
2017-07-11T00:17:34.371Z,17.9
2017-07-11T00:18:33.931Z,17.9
2017-07-11T00:19:33.369Z,17.9
2017-07-11T00:20:32.686Z,17.9
2017-07-11T00:21:32.073Z,18
2017-07-11T00:22:31.133Z,18
2017-07-11T00:23:30.187Z,18
2017-07-11T00:24:29.763Z,18
2017-07-11T00:25:29.197Z,18
2017-07-11T00:26:28.262Z,18
2017-07-11T00:27:28.091Z,18
2017-07-11T00:28:27.286Z,18
2017-07-11T00:29:26.624Z,18
2017-07-11T00:30:25.817Z,18
2017-07-11T00:31:25.259Z,17.9
2017-07-11T00:32:24.697Z,18
2017-07-11T00:33:24.154Z,18
2017-07-11T00:34:23.223Z,17.9
2017-07-11T00:34:53.486Z,17.9
2017-07-11T00:35:23.991Z,17.9
2017-07-11T00:35:54.110Z,17.9
2017-07-11T00:37:20.852Z,17.9
2017-07-11T00:38:20.674Z,17.9
2017-07-11T00:39:19.738Z,17.8
2017-07-11T00:40:19.182Z,17.8
2017-07-11T00:41:18.373Z,17.9
2017-07-11T00:42:17.685Z,17.9
2017-07-11T00:43:17.394Z,18
2017-07-11T00:44:16.084Z,17.9
2017-07-11T00:45:16.033Z,17.9
2017-07-11T00:46:14.852Z,17.9
2017-07-11T00:46:45.241Z,17.9
2017-07-11T00:47:15.489Z,18
2017-07-11T00:47:45.739Z,18
2017-07-11T00:48:16.647Z,18
2017-07-11T00:48:46.759Z,18
2017-07-11T00:49:17.270Z,17.9
2017-07-11T00:49:48.017Z,17.9
2017-07-11T00:51:11.865Z,17.9
2017-07-11T00:52:10.736Z,17.9
2017-07-11T00:53:10.550Z,17.9
2017-07-11T00:54:09.486Z,17.9
2017-07-11T00:55:08.942Z,18
2017-07-11T00:56:08.381Z,17.9
2017-07-11T00:57:07.832Z,17.9
2017-07-11T00:58:06.901Z,17.9
2017-07-11T01:00:05.369Z,17.9
2017-07-11T01:01:04.817Z,18
2017-07-11T01:02:04.011Z,17.9
2017-07-11T01:03:03.329Z,17.8
2017-07-11T01:04:03.145Z,17.8
2017-07-11T01:05:02.207Z,17.8
2017-07-11T01:06:01.534Z,17.8
2017-07-11T01:07:00.614Z,17.8
2017-07-11T01:07:31.494Z,17.8
2017-07-11T01:08:01.747Z,17.8
2017-07-11T01:08:59.570Z,17.8
2017-07-11T01:09:58.650Z,17.8
2017-07-11T01:10:58.357Z,17.8
2017-07-11T01:11:57.045Z,17.8
2017-07-11T01:12:56.741Z,17.8
2017-07-11T01:13:56.304Z,17.8
2017-07-11T01:14:55.120Z,17.8
2017-07-11T01:15:54.578Z,17.8
2017-07-11T01:16:54.282Z,17.8
2017-07-11T01:17:53.107Z,17.8
2017-07-11T01:18:52.752Z,17.8
2017-07-11T01:19:52.324Z,17.8
2017-07-11T01:20:51.025Z,17.7
2017-07-11T01:21:50.481Z,17.7
2017-07-11T01:22:49.792Z,17.8
2017-07-11T01:23:48.995Z,17.8
2017-07-11T01:24:48.437Z,17.8
2017-07-11T01:25:47.645Z,17.8
2017-07-11T01:26:47.292Z,17.8
2017-07-11T01:27:46.487Z,17.8
2017-07-11T01:29:45.082Z,17.8
2017-07-11T01:30:44.456Z,17.7
2017-07-11T01:31:44.032Z,17.7
2017-07-11T01:32:42.970Z,17.7
2017-07-11T01:33:42.296Z,17.7
2017-07-11T01:34:41.364Z,17.6
2017-07-11T01:35:40.928Z,17.6
2017-07-11T01:36:40.377Z,17.6
2017-07-11T01:37:39.698Z,17.6
2017-07-11T01:38:39.161Z,17.6
2017-07-11T01:39:38.117Z,17.6
2017-07-11T01:40:37.695Z,17.6
2017-07-11T01:41:37.267Z,17.6
2017-07-11T01:42:36.217Z,17.6
2017-07-11T01:43:35.669Z,17.6
2017-07-11T01:44:34.992Z,17.6
2017-07-11T01:45:34.068Z,17.6
2017-07-11T01:46:33.648Z,17.6
2017-07-11T01:47:33.099Z,17.6
2017-07-11T01:48:31.793Z,17.7
2017-07-11T01:49:31.356Z,17.6
2017-07-11T01:50:30.788Z,17.7
2017-07-11T01:51:30.102Z,17.7
2017-07-11T01:52:29.304Z,17.7
2017-07-11T01:53:28.383Z,17.6
2017-07-11T01:54:28.071Z,17.6
2017-07-11T01:55:27.542Z,17.7
2017-07-11T01:56:26.616Z,17.7
2017-07-11T01:57:26.195Z,17.7
2017-07-11T01:58:25.383Z,17.7
2017-07-11T01:59:24.453Z,17.6
2017-07-11T02:00:24.109Z,17.6
2017-07-11T02:01:23.186Z,17.6
2017-07-11T02:02:22.377Z,17.6
2017-07-11T02:03:21.711Z,17.7
2017-07-11T02:04:20.909Z,17.7
2017-07-11T02:05:20.237Z,17.7
2017-07-11T02:06:19.942Z,17.6
2017-07-11T02:07:19.012Z,17.6
2017-07-11T02:08:18.332Z,17.6
2017-07-11T02:09:17.660Z,17.6
2017-07-11T02:10:17.382Z,17.6
2017-07-11T02:11:16.453Z,17.6
2017-07-11T02:12:15.786Z,17.6
2017-07-11T02:13:15.364Z,17.6
2017-07-11T02:14:14.291Z,17.6
2017-07-11T02:14:44.928Z,17.6
2017-07-11T02:15:15.056Z,17.6
2017-07-11T02:15:45.687Z,17.6
2017-07-11T02:17:12.437Z,17.7
2017-07-11T02:18:11.636Z,17.6
2017-07-11T02:19:11.089Z,17.6
2017-07-11T02:20:10.164Z,17.6
2017-07-11T02:21:09.487Z,17.6
2017-07-11T02:22:08.564Z,17.6
2017-07-11T02:23:08.013Z,17.6
2017-07-11T02:24:07.079Z,17.6
2017-07-11T02:25:07.143Z,17.6
2017-07-11T02:26:05.964Z,17.5
2017-07-11T02:27:05.032Z,17.6
2017-07-11T02:28:04.479Z,17.5
2017-07-11T02:29:03.797Z,17.5
2017-07-11T02:30:03.136Z,17.5
2017-07-11T02:31:02.324Z,17.5
2017-07-11T02:32:02.143Z,17.5
2017-07-11T02:33:01.341Z,17.5
2017-07-11T02:34:00.530Z,17.5
2017-07-11T02:34:59.845Z,17.5
2017-07-11T02:35:59.047Z,17.5
2017-07-11T02:36:59.017Z,17.5
2017-07-11T02:37:57.586Z,17.5
2017-07-11T02:38:57.026Z,17.4
2017-07-11T02:39:56.353Z,17.4
2017-07-11T02:40:55.677Z,17.5
2017-07-11T02:41:55.010Z,17.4
2017-07-11T02:42:54.590Z,17.4
2017-07-11T02:43:53.405Z,17.5
2017-07-11T02:44:53.107Z,17.5
2017-07-11T02:45:52.188Z,17.5
2017-07-11T02:46:51.756Z,17.5
2017-07-11T02:47:51.202Z,17.5
2017-07-11T02:48:50.157Z,17.5
2017-07-11T02:49:49.347Z,17.5
2017-07-11T02:50:48.674Z,17.4
2017-07-11T02:51:48.119Z,17.5
2017-07-11T02:52:47.059Z,17.5
2017-07-11T02:53:47.005Z,17.4
2017-07-11T02:54:45.833Z,17.3
2017-07-11T02:55:16.459Z,17.3
2017-07-11T02:55:46.713Z,17.4
2017-07-11T02:56:17.593Z,17.4
2017-07-11T02:56:47.716Z,17.3
2017-07-11T02:57:18.483Z,17.3
2017-07-11T02:58:43.486Z,17.3
2017-07-11T02:59:42.804Z,17.4
2017-07-11T03:00:42.268Z,17.4
2017-07-11T03:01:41.208Z,17.4
2017-07-11T03:02:40.663Z,17.4
2017-07-11T03:03:39.857Z,17.5
2017-07-11T03:04:39.061Z,17.5
2017-07-11T03:05:38.515Z,17.5
2017-07-11T03:06:38.219Z,17.5
2017-07-11T03:07:08.210Z,17.5
2017-07-11T03:07:38.841Z,17.5
2017-07-11T03:08:09.337Z,17.5
2017-07-11T03:08:39.477Z,17.3
2017-07-11T03:09:09.731Z,17.3
2017-07-11T03:09:40.359Z,17.3
2017-07-11T03:10:35.420Z,17.3
2017-07-11T03:11:33.985Z,17.4
2017-07-11T03:12:33.676Z,17.3
2017-07-11T03:13:33.439Z,17.3
2017-07-11T03:14:32.132Z,17.3
2017-07-11T03:15:31.325Z,17.3
2017-07-11T03:16:30.887Z,17.3
2017-07-11T03:17:30.088Z,17.3
2017-07-11T03:18:29.917Z,17.3
2017-07-11T03:19:28.719Z,17.3
2017-07-11T03:20:28.167Z,17.2
2017-07-11T03:21:27.615Z,17.2
2017-07-11T03:22:26.556Z,17.2
2017-07-11T03:23:26.130Z,17.3
2017-07-11T03:25:24.705Z,17.4
2017-07-11T03:26:24.284Z,17.4
2017-07-11T03:27:23.644Z,17.3
2017-07-11T03:28:22.453Z,17.3
2017-07-11T03:29:22.287Z,17.3
2017-07-11T03:30:21.479Z,17.3
2017-07-11T03:31:20.674Z,17.3
2017-07-11T03:32:19.746Z,17.3
2017-07-11T03:33:19.070Z,17.3
2017-07-11T03:34:18.514Z,17.1
2017-07-11T03:35:18.097Z,17.1
2017-07-11T03:36:16.785Z,17.1
2017-07-11T03:37:16.718Z,17.1
2017-07-11T03:38:16.162Z,17.2
2017-07-11T03:39:15.376Z,17.2
2017-07-11T03:40:14.695Z,17.2
2017-07-11T03:42:13.415Z,17.3
2017-07-11T03:43:12.381Z,17.3
2017-07-11T03:44:11.700Z,17.3
2017-07-11T03:45:11.291Z,17.2
2017-07-11T03:46:10.490Z,17.2
2017-07-11T03:47:09.808Z,17.3
2017-07-11T03:48:09.006Z,17.3
2017-07-11T03:49:08.448Z,17.3
2017-07-11T03:50:07.776Z,17.3
2017-07-11T03:51:07.097Z,17.3
2017-07-11T03:52:06.425Z,17.2
2017-07-11T03:53:05.243Z,17.3
2017-07-11T03:54:04.815Z,17.3
2017-07-11T03:55:04.134Z,17.3
2017-07-11T03:56:03.711Z,17.3
2017-07-11T03:57:03.032Z,17.2
2017-07-11T03:58:02.500Z,17.1
2017-07-11T03:59:01.431Z,17.1
2017-07-11T04:00:00.671Z,17.1
2017-07-11T04:01:00.247Z,17.2
2017-07-11T04:01:59.322Z,17.3
2017-07-11T04:02:58.778Z,17.3
2017-07-11T04:03:28.782Z,17.3
2017-07-11T04:03:59.271Z,17.3
2017-07-11T04:04:56.957Z,17.3
2017-07-11T04:05:56.938Z,17.3
2017-07-11T04:06:55.872Z,17.4
2017-07-11T04:07:55.448Z,17.4
2017-07-11T04:08:54.786Z,17.4
2017-07-11T04:09:53.613Z,17.4
2017-07-11T04:10:52.935Z,17.4
2017-07-11T04:11:52.132Z,17.4
2017-07-11T04:12:52.082Z,17.4
2017-07-11T04:13:51.026Z,17.4
2017-07-11T04:14:50.341Z,17.5
2017-07-11T04:15:49.924Z,17.5
2017-07-11T04:16:49.119Z,17.5
2017-07-11T04:17:48.696Z,17.4
2017-07-11T04:18:47.643Z,17.4
2017-07-11T04:19:47.085Z,17.5
2017-07-11T04:20:46.539Z,17.5
2017-07-11T04:21:45.363Z,17.5
2017-07-11T04:22:44.556Z,17.5
2017-07-11T04:23:43.752Z,17.5
2017-07-11T04:24:43.824Z,17.5
2017-07-11T04:25:43.150Z,17.5
2017-07-11T04:26:41.968Z,17.5
2017-07-11T04:27:41.156Z,17.5
2017-07-11T04:28:41.119Z,17.5
2017-07-11T04:29:40.196Z,17.5
2017-07-11T04:30:39.762Z,17.5
2017-07-11T04:31:38.835Z,17.4
2017-07-11T04:32:38.398Z,17.3
2017-07-11T04:33:37.467Z,17.3
2017-07-11T04:34:37.049Z,17.3
2017-07-11T04:35:36.677Z,17.3
2017-07-11T04:36:35.690Z,17.3
2017-07-11T04:37:34.272Z,17.3
2017-07-11T04:38:33.475Z,17.3
2017-07-11T04:39:32.920Z,17.3
2017-07-11T04:40:32.874Z,17.3
2017-07-11T04:41:31.687Z,17.3
2017-07-11T04:42:31.003Z,17.3
2017-07-11T04:43:30.443Z,17.3
2017-07-11T04:44:00.569Z,17.3
2017-07-11T04:44:31.072Z,17.3
2017-07-11T04:45:29.013Z,17.4
2017-07-11T04:46:28.077Z,17.4
2017-07-11T04:47:27.903Z,17.4
2017-07-11T04:48:27.343Z,17.4
2017-07-11T04:49:26.538Z,17.4
2017-07-11T04:50:26.174Z,17.4
2017-07-11T04:51:25.126Z,17.5
2017-07-11T04:52:24.455Z,17.4
2017-07-11T04:53:23.512Z,17.4
2017-07-11T04:54:22.957Z,17.3
2017-07-11T04:54:53.341Z,17.3
2017-07-11T04:55:23.475Z,17.3
2017-07-11T04:55:53.725Z,17.3
2017-07-11T04:56:23.853Z,17.3
2017-07-11T04:56:54.482Z,17.3
2017-07-11T04:58:20.231Z,17.4
2017-07-11T04:59:19.410Z,17.4
2017-07-11T05:00:18.996Z,17.4
2017-07-11T05:02:17.450Z,17.4
2017-07-11T05:03:16.891Z,17.4
2017-07-11T05:04:16.467Z,17.4
2017-07-11T05:05:15.287Z,17.4
2017-07-11T05:06:14.483Z,17.4
2017-07-11T05:07:13.683Z,17.4
2017-07-11T05:08:13.388Z,17.4
2017-07-11T05:09:12.700Z,17.4
2017-07-11T05:10:12.469Z,17.4
2017-07-11T05:11:11.284Z,17.4
2017-07-11T05:12:10.469Z,17.4
2017-07-11T05:13:10.052Z,17.5
2017-07-11T05:14:09.131Z,17.5
2017-07-11T05:15:08.453Z,17.5
2017-07-11T05:16:07.647Z,17.5
2017-07-11T05:17:06.970Z,17.5
2017-07-11T05:18:06.286Z,17.5
2017-07-11T05:19:05.600Z,17.5
2017-07-11T05:20:05.177Z,17.5
2017-07-11T05:21:04.239Z,17.5
2017-07-11T05:22:03.690Z,17.5
2017-07-11T05:23:02.994Z,17.5
2017-07-11T05:24:02.749Z,17.5
2017-07-11T05:25:01.564Z,17.5
2017-07-11T05:26:00.886Z,17.5
2017-07-11T05:27:00.330Z,17.5
2017-07-11T05:27:59.520Z,17.5
2017-07-11T05:28:58.974Z,17.5
2017-07-11T05:29:58.442Z,17.6
2017-07-11T05:30:57.504Z,17.5
2017-07-11T05:31:56.957Z,17.6
2017-07-11T05:32:56.274Z,17.6
2017-07-11T05:33:55.465Z,17.6
2017-07-11T05:34:54.535Z,17.6
2017-07-11T05:35:53.975Z,17.6
2017-07-11T05:37:52.810Z,17.6
2017-07-11T05:38:52.003Z,17.6
2017-07-11T05:39:51.324Z,17.6
2017-07-11T05:40:50.518Z,17.6
2017-07-11T05:41:49.962Z,17.6
2017-07-11T05:42:49.422Z,17.6
2017-07-11T05:43:48.728Z,17.7
2017-07-11T05:44:47.923Z,17.7
2017-07-11T05:45:47.502Z,17.7
2017-07-11T05:46:46.687Z,17.7
2017-07-11T05:47:46.011Z,17.7
2017-07-11T05:48:45.572Z,17.8
2017-07-11T05:49:45.018Z,17.8
2017-07-11T05:50:43.956Z,17.8
2017-07-11T05:51:42.944Z,17.8
2017-07-11T05:52:14.281Z,17.8
2017-07-11T05:52:43.775Z,17.8
2017-07-11T05:53:14.283Z,17.8
2017-07-11T05:53:44.414Z,17.8
2017-07-11T05:54:14.917Z,17.8
2017-07-11T05:55:40.429Z,17.8
2017-07-11T05:56:39.627Z,17.8
2017-07-11T05:57:38.943Z,17.8
2017-07-11T05:58:38.707Z,17.8
2017-07-11T05:59:38.042Z,17.8
2017-07-11T06:00:36.978Z,17.8
2017-07-11T06:01:36.296Z,17.8
2017-07-11T06:02:35.752Z,17.9
2017-07-11T06:03:35.077Z,17.9
2017-07-11T06:04:05.335Z,17.9
2017-07-11T06:04:35.974Z,17.9
2017-07-11T06:05:06.732Z,17.9
2017-07-11T06:06:32.984Z,17.9
2017-07-11T06:07:32.437Z,17.9
2017-07-11T06:08:31.876Z,17.9
2017-07-11T06:09:30.686Z,17.9
2017-07-11T06:10:30.137Z,17.9
2017-07-11T06:11:29.342Z,18
2017-07-11T06:12:28.656Z,18
2017-07-11T06:13:28.227Z,18
2017-07-11T06:14:27.303Z,18
2017-07-11T06:15:26.755Z,18
2017-07-11T06:16:25.690Z,18
2017-07-11T06:17:25.514Z,18
2017-07-11T06:18:24.954Z,18
2017-07-11T06:19:24.273Z,18
2017-07-11T06:20:23.724Z,18
2017-07-11T06:21:22.786Z,18
2017-07-11T06:21:53.416Z,18
2017-07-11T06:22:23.412Z,18
2017-07-11T06:22:53.791Z,18
2017-07-11T06:24:20.796Z,18
2017-07-11T06:25:20.121Z,18
2017-07-11T06:26:19.435Z,18
2017-07-11T06:27:19.020Z,18
2017-07-11T06:28:17.975Z,18
2017-07-11T06:29:17.536Z,18
2017-07-11T06:30:16.606Z,18
2017-07-11T06:31:15.908Z,18
2017-07-11T06:32:15.107Z,18
2017-07-11T06:33:14.678Z,18
2017-07-11T06:34:13.616Z,18
2017-07-11T06:35:13.442Z,18
2017-07-11T06:36:12.633Z,18.1
2017-07-11T06:37:11.935Z,18.1
2017-07-11T06:38:10.994Z,18.1
2017-07-11T06:39:10.826Z,18.1
2017-07-11T06:40:10.017Z,18.1
2017-07-11T06:41:09.215Z,18.1
2017-07-11T06:42:08.658Z,18.1
2017-07-11T06:43:07.981Z,18.1
2017-07-11T06:44:07.301Z,18.1
2017-07-11T06:44:37.675Z,18.1
2017-07-11T06:45:07.932Z,18.1
2017-07-11T06:45:38.191Z,18.1
2017-07-11T06:47:05.205Z,18.2
2017-07-11T06:48:04.654Z,18.2
2017-07-11T06:49:03.849Z,18.2
2017-07-11T06:50:02.789Z,18.2
2017-07-11T06:51:02.484Z,18.2
2017-07-11T06:52:01.812Z,18.3
2017-07-11T06:53:01.004Z,18.3
2017-07-11T06:54:00.335Z,18.3
2017-07-11T06:54:59.655Z,18.3
2017-07-11T06:55:58.978Z,18.3
2017-07-11T06:56:58.556Z,18.4
2017-07-11T06:57:58.709Z,18.4
2017-07-11T06:58:57.160Z,18.4
2017-07-11T06:59:56.483Z,18.4
2017-07-11T07:00:55.919Z,18.4
2017-07-11T07:01:55.103Z,18.5
2017-07-11T07:02:54.698Z,18.5
2017-07-11T07:03:54.140Z,18.5
2017-07-11T07:04:52.967Z,18.4
2017-07-11T07:05:52.286Z,18.4
2017-07-11T07:06:51.870Z,18.4
2017-07-11T07:07:51.182Z,18.4
2017-07-11T07:08:50.301Z,18.4
2017-07-11T07:09:49.875Z,18.4
2017-07-11T07:10:48.950Z,18.4
2017-07-11T07:11:48.160Z,18.5
2017-07-11T07:12:47.611Z,18.5
2017-07-11T07:13:47.052Z,18.5
2017-07-11T07:14:46.513Z,18.5
2017-07-11T07:15:45.842Z,18.5
2017-07-11T07:16:16.482Z,18.5
2017-07-11T07:16:46.487Z,18.5
2017-07-11T07:17:44.309Z,18.5
2017-07-11T07:18:43.750Z,18.5
2017-07-11T07:19:43.191Z,18.5
2017-07-11T07:20:42.522Z,18.5
2017-07-11T07:21:41.859Z,18.6
2017-07-11T07:22:41.045Z,18.6
2017-07-11T07:23:40.109Z,18.6
2017-07-11T07:24:39.920Z,18.6
2017-07-11T07:25:38.735Z,18.6
2017-07-11T07:26:38.571Z,18.6
2017-07-11T07:27:37.890Z,18.6
2017-07-11T07:28:37.340Z,18.6
2017-07-11T07:29:36.166Z,18.6
2017-07-11T07:30:35.499Z,18.6
2017-07-11T07:31:34.826Z,18.6
2017-07-11T07:32:34.140Z,18.6
2017-07-11T07:33:33.472Z,18.6
2017-07-11T07:34:32.801Z,18.6
2017-07-11T07:35:32.245Z,18.6
2017-07-11T07:36:31.313Z,18.6
2017-07-11T07:37:31.011Z,18.6
2017-07-11T07:38:30.213Z,18.6
2017-07-11T07:39:29.526Z,18.6
2017-07-11T07:40:28.720Z,18.6
2017-07-11T07:40:59.101Z,18.6
2017-07-11T07:42:27.480Z,18.6
2017-07-11T07:43:26.937Z,18.6
2017-07-11T07:44:26.385Z,18.6
2017-07-11T07:45:25.965Z,18.6
2017-07-11T07:46:24.792Z,18.6
2017-07-11T07:47:23.998Z,18.6
2017-07-11T07:48:23.817Z,18.6
2017-07-11T07:49:23.011Z,18.6
2017-07-11T07:50:22.462Z,18.6
2017-07-11T07:51:21.410Z,18.6
2017-07-11T07:52:21.366Z,18.6
2017-07-11T07:53:20.057Z,18.6
2017-07-11T07:53:50.571Z,18.6
2017-07-11T07:55:19.086Z,18.7
2017-07-11T07:56:18.975Z,18.7
2017-07-11T07:57:17.926Z,18.7
2017-07-11T07:58:17.251Z,18.8
2017-07-11T07:59:16.707Z,18.8
2017-07-11T08:00:16.150Z,18.8
2017-07-11T08:01:15.087Z,18.8
2017-07-11T08:02:14.279Z,18.9
2017-07-11T08:03:14.222Z,18.9
2017-07-11T08:04:13.289Z,18.9
2017-07-11T08:05:12.348Z,19
2017-07-11T08:06:11.594Z,19
2017-07-11T08:07:11.426Z,19
2017-07-11T08:08:10.259Z,19
2017-07-11T08:09:09.709Z,19
2017-07-11T08:10:09.165Z,19
2017-07-11T08:11:08.619Z,19
2017-07-11T08:11:38.621Z,19
2017-07-11T08:12:09.129Z,19
2017-07-11T08:12:39.142Z,19
2017-07-11T08:13:10.034Z,19.1
2017-07-11T08:13:40.416Z,19.1
2017-07-11T08:15:05.783Z,19.1
2017-07-11T08:16:05.104Z,19
2017-07-11T08:17:04.554Z,19
2017-07-11T08:18:03.494Z,19
2017-07-11T08:19:03.567Z,19
2017-07-11T08:20:02.621Z,19
2017-07-11T08:21:01.963Z,19
2017-07-11T08:22:01.152Z,19
2017-07-11T08:23:00.722Z,19
2017-07-11T08:23:59.902Z,19
2017-07-11T08:24:59.473Z,19
2017-07-11T08:25:58.917Z,19
2017-07-11T08:26:58.361Z,19
2017-07-11T08:27:57.436Z,19
2017-07-11T08:28:56.877Z,19
2017-07-11T08:29:56.465Z,19
2017-07-11T08:30:55.409Z,19
2017-07-11T08:31:54.866Z,19
2017-07-11T08:32:53.803Z,19
2017-07-11T08:33:53.758Z,19
2017-07-11T08:34:52.591Z,19
2017-07-11T08:35:23.364Z,19
2017-07-11T08:35:53.686Z,19
2017-07-11T08:38:50.289Z,19.1
2017-07-11T08:39:49.365Z,19.1
2017-07-11T08:40:48.812Z,19.1
2017-07-11T08:41:48.149Z,19.1
2017-07-11T08:42:47.478Z,19.2
2017-07-11T08:43:46.806Z,19.2
2017-07-11T08:44:46.260Z,19.3
2017-07-11T08:45:45.832Z,19.3
2017-07-11T08:46:45.024Z,19.3
2017-07-11T08:47:44.338Z,19.3
2017-07-11T08:48:43.540Z,19.4
2017-07-11T08:49:43.117Z,19.4
2017-07-11T08:50:42.699Z,19.4
2017-07-11T08:51:41.384Z,19.5
2017-07-11T08:52:41.213Z,19.5
2017-07-11T08:53:40.166Z,19.5
2017-07-11T08:54:39.742Z,19.5
2017-07-11T08:55:39.199Z,19.5
2017-07-11T08:56:38.779Z,19.5
2017-07-11T08:57:37.841Z,19.5
2017-07-11T08:58:37.546Z,19.5
2017-07-11T08:59:36.361Z,19.5
2017-07-11T09:00:35.800Z,19.5
2017-07-11T09:01:35.300Z,19.6
2017-07-11T09:02:34.369Z,19.6
2017-07-11T09:03:34.323Z,19.6
2017-07-11T09:04:33.265Z,19.6
2017-07-11T09:05:32.596Z,19.6
2017-07-11T09:06:31.919Z,19.8
2017-07-11T09:07:31.367Z,19.8
2017-07-11T09:08:30.688Z,19.9
2017-07-11T09:09:01.060Z,19.9
2017-07-11T09:09:31.699Z,20
2017-07-11T09:10:29.081Z,20
2017-07-11T09:11:28.656Z,20
2017-07-11T09:12:27.985Z,20
2017-07-11T09:13:27.693Z,20
2017-07-11T09:14:26.529Z,20.1
2017-07-11T09:15:26.468Z,20.1
2017-07-11T09:16:25.290Z,20.1
2017-07-11T09:17:24.611Z,20
2017-07-11T09:18:24.321Z,20
2017-07-11T09:19:24.032Z,20
2017-07-11T09:20:22.729Z,20
2017-07-11T09:20:53.105Z,20
2017-07-11T09:21:23.797Z,20
2017-07-11T09:21:54.304Z,20
2017-07-11T09:22:24.672Z,20
2017-07-11T09:22:55.299Z,20
2017-07-11T09:24:20.050Z,20
2017-07-11T09:25:19.622Z,20.1
2017-07-11T09:26:19.058Z,20.1
2017-07-11T09:27:18.500Z,20.2
2017-07-11T09:28:17.694Z,20.2
2017-07-11T09:29:17.396Z,20.2
2017-07-11T09:30:16.331Z,20.3
2017-07-11T09:31:16.150Z,20.3
2017-07-11T09:32:15.226Z,20.3
2017-07-11T09:33:14.287Z,20.3
2017-07-11T09:34:14.356Z,20.4
2017-07-11T09:35:13.308Z,20.3
2017-07-11T09:36:13.002Z,20.4
2017-07-11T09:37:12.193Z,20.4
2017-07-11T09:38:11.697Z,20.5
2017-07-11T09:39:10.532Z,20.6
2017-07-11T09:40:09.862Z,20.6
2017-07-11T09:41:09.822Z,20.6
2017-07-11T09:42:09.018Z,20.6
2017-07-11T09:43:08.346Z,20.6
2017-07-11T09:44:07.541Z,20.7
2017-07-11T09:45:06.986Z,20.8
2017-07-11T09:46:06.306Z,20.8
2017-07-11T09:47:05.502Z,20.8
2017-07-11T09:48:05.072Z,21.1
2017-07-11T09:49:04.281Z,21.2
2017-07-11T09:50:03.620Z,21.2
2017-07-11T09:51:03.190Z,21.3
2017-07-11T09:52:02.394Z,21.4
2017-07-11T09:53:02.151Z,21.4
2017-07-11T09:54:01.343Z,21.5
2017-07-11T09:55:00.644Z,21.5
2017-07-11T09:56:00.088Z,21.6
2017-07-11T09:56:59.987Z,21.6
2017-07-11T09:57:58.679Z,21.5
2017-07-11T09:58:58.021Z,21.5
2017-07-11T09:59:57.610Z,21.5
2017-07-11T10:00:27.631Z,21.5
2017-07-11T10:00:58.518Z,21.3
2017-07-11T10:01:28.885Z,21.3
2017-07-11T10:01:59.269Z,21.3
2017-07-11T10:02:30.151Z,21.3
2017-07-11T10:03:00.656Z,21.2
2017-07-11T10:03:31.145Z,21.2
2017-07-11T10:04:54.622Z,21.3
2017-07-11T10:05:53.812Z,21.3
2017-07-11T10:06:53.257Z,21.4
2017-07-11T10:07:52.575Z,21.4
2017-07-11T10:08:51.897Z,21.4
2017-07-11T10:09:50.843Z,21.4
2017-07-11T10:10:50.781Z,21.3
2017-07-11T10:11:50.220Z,21.3
2017-07-11T10:12:49.464Z,21.2
2017-07-11T10:13:19.727Z,21.2
2017-07-11T10:13:50.496Z,21.2
2017-07-11T10:14:20.754Z,21.2
2017-07-11T10:14:51.378Z,21.1
2017-07-11T10:15:21.516Z,21.1
2017-07-11T10:15:52.995Z,21
2017-07-11T10:16:22.491Z,21
2017-07-11T10:17:46.210Z,20.9
2017-07-11T10:18:45.916Z,21
2017-07-11T10:19:45.227Z,21
2017-07-11T10:20:44.291Z,21.1
2017-07-11T10:21:44.122Z,21.1
2017-07-11T10:22:42.956Z,21.1
2017-07-11T10:23:42.669Z,21.1
2017-07-11T10:24:42.818Z,21.1
2017-07-11T10:25:41.125Z,21.1
2017-07-11T10:26:41.894Z,21.1
2017-07-11T10:27:40.204Z,21.2
2017-07-11T10:28:39.398Z,21.1
2017-07-11T10:29:39.101Z,21.1
2017-07-11T10:30:38.560Z,21.1
2017-07-11T10:31:37.906Z,21.3
2017-07-11T10:33:36.755Z,21.3
2017-07-11T10:34:36.208Z,21.3
2017-07-11T10:35:35.536Z,21.2
2017-07-11T10:36:34.978Z,21.2
2017-07-11T10:37:34.414Z,21.2
2017-07-11T10:39:32.995Z,21.2
2017-07-11T10:40:32.431Z,21.2
2017-07-11T10:41:32.126Z,21.2
2017-07-11T10:42:31.184Z,21.1
2017-07-11T10:43:30.507Z,21.4
2017-07-11T10:44:29.882Z,21.5
2017-07-11T10:45:28.953Z,21.5
2017-07-11T10:46:28.772Z,21.5
2017-07-11T10:47:28.268Z,21.5
2017-07-11T10:48:27.582Z,21.6
2017-07-11T10:49:27.039Z,21.6
2017-07-11T10:50:26.232Z,21.6
2017-07-11T10:51:25.687Z,21.5
2017-07-11T10:52:25.001Z,21.5
2017-07-11T10:53:24.452Z,21.5
2017-07-11T10:54:23.519Z,21.5
2017-07-11T10:55:23.206Z,21.6
2017-07-11T10:56:22.902Z,21.5
2017-07-11T10:57:22.215Z,21.5
2017-07-11T10:58:21.411Z,21.5
2017-07-11T10:59:20.867Z,21.6
2017-07-11T11:00:20.191Z,21.6
2017-07-11T11:01:19.766Z,21.6
2017-07-11T11:02:19.087Z,21.7
2017-07-11T11:03:18.411Z,21.7
2017-07-11T11:04:18.359Z,21.6
2017-07-11T11:05:17.438Z,21.5
2017-07-11T11:06:16.644Z,21.5
2017-07-11T11:07:16.222Z,21.5
2017-07-11T11:08:15.552Z,21.5
2017-07-11T11:09:15.503Z,21.5
2017-07-11T11:10:14.323Z,21.6
2017-07-11T11:10:45.085Z,21.6
2017-07-11T11:11:15.597Z,21.6
2017-07-11T11:11:45.844Z,21.6
2017-07-11T11:12:16.215Z,21.6
2017-07-11T11:12:46.981Z,21.6
2017-07-11T11:13:17.362Z,21.6
2017-07-11T11:14:12.162Z,21.8
2017-07-11T11:15:11.218Z,21.8
2017-07-11T11:16:11.300Z,21.8
2017-07-11T11:17:10.486Z,21.8
2017-07-11T11:18:09.807Z,21.8
2017-07-11T11:19:09.378Z,21.8
2017-07-11T11:20:08.447Z,21.8
2017-07-11T11:21:08.016Z,21.8
2017-07-11T11:22:07.206Z,21.8
2017-07-11T11:23:06.649Z,21.8
2017-07-11T11:24:06.214Z,21.8
2017-07-11T11:25:05.915Z,21.7
2017-07-11T11:26:05.115Z,21.8
2017-07-11T11:27:05.064Z,21.8
2017-07-11T11:28:04.376Z,21.8
2017-07-11T11:29:04.255Z,21.8
2017-07-11T11:30:03.068Z,21.8
2017-07-11T11:31:02.507Z,21.7
2017-07-11T11:32:02.337Z,21.6
2017-07-11T11:33:01.044Z,21.6
2017-07-11T11:34:00.738Z,21.6
2017-07-11T11:35:00.058Z,21.6
2017-07-11T11:35:59.500Z,21.5
2017-07-11T11:36:58.953Z,21.5
2017-07-11T11:37:59.036Z,21.5
2017-07-11T11:38:57.719Z,21.5
2017-07-11T11:39:57.786Z,21.5
2017-07-11T11:40:56.982Z,21.6
2017-07-11T11:41:56.182Z,21.6
2017-07-11T11:42:55.876Z,21.7
2017-07-11T11:43:26.135Z,21.7
2017-07-11T11:43:56.893Z,21.6
2017-07-11T11:44:54.571Z,21.6
2017-07-11T11:45:54.031Z,21.7
2017-07-11T11:46:53.354Z,21.7
2017-07-11T11:47:53.176Z,21.7
2017-07-11T11:48:52.511Z,21.6
2017-07-11T11:49:51.837Z,21.7
2017-07-11T11:50:51.056Z,21.6
2017-07-11T11:51:21.935Z,21.6
2017-07-11T11:51:52.320Z,21.6
2017-07-11T11:52:22.950Z,21.6
2017-07-11T11:52:53.082Z,21.6
2017-07-11T11:53:49.891Z,21.6
2017-07-11T11:54:49.204Z,21.6
2017-07-11T11:55:49.389Z,21.6
2017-07-11T11:56:48.076Z,21.5
2017-07-11T11:57:47.700Z,21.6
2017-07-11T11:58:47.280Z,21.6
2017-07-11T11:59:46.593Z,21.6
2017-07-11T12:00:45.730Z,21.6
2017-07-11T12:01:45.187Z,21.6
2017-07-11T12:02:44.886Z,21.6
2017-07-11T12:03:44.074Z,21.6
2017-07-11T12:04:43.392Z,21.6
2017-07-11T12:05:14.148Z,21.6
2017-07-11T12:05:44.784Z,21.7
2017-07-11T12:06:14.909Z,21.7
2017-07-11T12:06:45.531Z,21.7
2017-07-11T12:08:41.221Z,21.8
2017-07-11T12:09:40.555Z,21.8
2017-07-11T12:10:40.412Z,21.8
2017-07-11T12:11:39.732Z,21.8
2017-07-11T12:12:39.549Z,21.9
2017-07-11T12:13:38.365Z,21.9
2017-07-11T12:14:38.063Z,21.8
2017-07-11T12:15:37.388Z,21.8
2017-07-11T12:16:37.473Z,21.8
2017-07-11T12:17:36.549Z,21.8
2017-07-11T12:18:35.862Z,21.8
2017-07-11T12:19:35.183Z,21.7
2017-07-11T12:20:34.632Z,21.6
2017-07-11T12:21:34.007Z,21.6
2017-07-11T12:22:33.812Z,21.6
2017-07-11T12:23:33.131Z,21.6
2017-07-11T12:24:32.316Z,21.5
2017-07-11T12:25:02.566Z,21.5
2017-07-11T12:26:31.575Z,20.8
2017-07-11T12:27:30.900Z,20.4
2017-07-11T12:28:30.122Z,20.4
2017-07-11T12:30:29.328Z,20
2017-07-11T12:31:28.653Z,19.8
2017-07-11T12:32:27.976Z,19.7
2017-07-11T12:33:27.428Z,19.6
2017-07-11T12:34:26.881Z,19.5
2017-07-11T12:35:26.335Z,19.5
2017-07-11T12:36:25.780Z,19.5
2017-07-11T12:37:25.361Z,19.5
2017-07-11T12:38:23.927Z,19.5
2017-07-11T12:39:23.614Z,19.5
2017-07-11T12:40:22.750Z,19.4
2017-07-11T12:41:22.456Z,19.4
2017-07-11T12:42:21.536Z,19.5
2017-07-11T12:43:21.370Z,19.5
2017-07-11T12:44:20.687Z,19.5
2017-07-11T12:45:20.134Z,19.5
2017-07-11T12:46:19.446Z,19.5
2017-07-11T12:47:18.905Z,19.6
2017-07-11T12:48:18.235Z,19.7